sensor_id;sensor_type;location;lat;lon;timestamp;temperature;humidity
52941;DHT22;62001;53.366;6.636;2022-12-24T00:02:18;6.00;99.90
52941;DHT22;62001;53.366;6.636;2022-12-24T00:04:44;6.00;99.90
52941;DHT22;62001;53.366;6.636;2022-12-24T00:07:10;6.00;99.90
52941;DHT22;62001;53.366;6.636;2022-12-24T00:09:36;6.00;99.90
52941;DHT22;62001;53.366;6.636;2022-12-24T00:12:02;6.00;99.90
52941;DHT22;62001;53.366;6.636;2022-12-24T00:14:28;6.00;99.90
52941;DHT22;62001;53.366;6.636;2022-12-24T00:16:54;6.00;99.90
52941;DHT22;62001;53.366;6.636;2022-12-24T00:19:20;6.00;99.90
52941;DHT22;62001;53.366;6.636;2022-12-24T00:21:46;6.00;99.90
52941;DHT22;62001;53.366;6.636;2022-12-24T00:24:12;6.00;99.90
52941;DHT22;62001;53.366;6.636;2022-12-24T00:26:38;6.00;99.90
52941;DHT22;62001;53.366;6.636;2022-12-24T00:29:03;6.00;99.90
52941;DHT22;62001;53.366;6.636;2022-12-24T00:31:29;6.10;99.90
52941;DHT22;62001;53.366;6.636;2022-12-24T00:33:55;6.10;99.90
52941;DHT22;62001;53.366;6.636;2022-12-24T00:36:21;6.00;99.90
52941;DHT22;62001;53.366;6.636;2022-12-24T00:38:47;6.00;99.90
52941;DHT22;62001;53.366;6.636;2022-12-24T00:41:14;6.00;99.90
52941;DHT22;62001;53.366;6.636;2022-12-24T00:43:54;6.00;99.90
52941;DHT22;62001;53.366;6.636;2022-12-24T00:46:21;6.00;99.90
52941;DHT22;62001;53.366;6.636;2022-12-24T00:48:48;6.00;99.90
52941;DHT22;62001;53.366;6.636;2022-12-24T00:51:14;6.00;99.90
52941;DHT22;62001;53.366;6.636;2022-12-24T00:53:40;6.00;99.90
52941;DHT22;62001;53.366;6.636;2022-12-24T00:56:06;6.00;99.90
52941;DHT22;62001;53.366;6.636;2022-12-24T00:58:32;6.00;99.90
52941;DHT22;62001;53.366;6.636;2022-12-24T01:00:58;6.00;99.90
52941;DHT22;62001;53.366;6.636;2022-12-24T01:03:25;6.00;99.90
52941;DHT22;62001;53.366;6.636;2022-12-24T01:06:14;6.00;99.90
52941;DHT22;62001;53.366;6.636;2022-12-24T01:08:41;6.00;99.90
52941;DHT22;62001;53.366;6.636;2022-12-24T01:11:08;6.00;99.90
52941;DHT22;62001;53.366;6.636;2022-12-24T01:13:35;6.00;99.90
52941;DHT22;62001;53.366;6.636;2022-12-24T01:16:01;6.00;99.90
52941;DHT22;62001;53.366;6.636;2022-12-24T01:18:27;6.00;99.90
52941;DHT22;62001;53.366;6.636;2022-12-24T01:20:59;6.00;99.90
52941;DHT22;62001;53.366;6.636;2022-12-24T01:23:25;6.00;99.90
52941;DHT22;62001;53.366;6.636;2022-12-24T01:25:51;6.00;99.90
52941;DHT22;62001;53.366;6.636;2022-12-24T01:28:17;6.00;99.90
52941;DHT22;62001;53.366;6.636;2022-12-24T01:30:43;6.00;99.90
52941;DHT22;62001;53.366;6.636;2022-12-24T01:33:09;6.00;99.90
52941;DHT22;62001;53.366;6.636;2022-12-24T01:35:39;6.00;99.90
52941;DHT22;62001;53.366;6.636;2022-12-24T01:38:05;6.00;99.90
52941;DHT22;62001;53.366;6.636;2022-12-24T01:40:31;6.00;99.90
52941;DHT22;62001;53.366;6.636;2022-12-24T01:43:20;6.00;99.90
52941;DHT22;62001;53.366;6.636;2022-12-24T01:46:02;6.00;99.90
52941;DHT22;62001;53.366;6.636;2022-12-24T01:48:42;6.00;99.90
52941;DHT22;62001;53.366;6.636;2022-12-24T01:51:16;6.00;99.90
52941;DHT22;62001;53.366;6.636;2022-12-24T01:53:46;6.00;99.90
52941;DHT22;62001;53.366;6.636;2022-12-24T01:56:13;6.00;99.90
52941;DHT22;62001;53.366;6.636;2022-12-24T01:58:42;6.00;99.90
52941;DHT22;62001;53.366;6.636;2022-12-24T02:01:11;6.00;99.90
52941;DHT22;62001;53.366;6.636;2022-12-24T02:03:36;6.00;99.90
52941;DHT22;62001;53.366;6.636;2022-12-24T02:06:03;6.00;99.90
52941;DHT22;62001;53.366;6.636;2022-12-24T02:08:29;6.00;99.90
52941;DHT22;62001;53.366;6.636;2022-12-24T02:11:14;6.00;99.90
52941;DHT22;62001;53.366;6.636;2022-12-24T02:13:44;6.00;99.90
52941;DHT22;62001;53.366;6.636;2022-12-24T02:24:36;6.00;99.90
52941;DHT22;62001;53.366;6.636;2022-12-24T02:32:34;6.00;99.90
52941;DHT22;62001;53.366;6.636;2022-12-24T02:35:05;6.10;99.90
52941;DHT22;62001;53.366;6.636;2022-12-24T02:37:37;6.10;99.90
52941;DHT22;62001;53.366;6.636;2022-12-24T02:40:23;6.10;99.90
52941;DHT22;62001;53.366;6.636;2022-12-24T02:42:54;6.10;99.90
52941;DHT22;62001;53.366;6.636;2022-12-24T02:45:27;6.10;99.90
52941;DHT22;62001;53.366;6.636;2022-12-24T02:47:54;6.10;99.90
52941;DHT22;62001;53.366;6.636;2022-12-24T02:50:20;6.10;99.90
52941;DHT22;62001;53.366;6.636;2022-12-24T02:52:47;6.10;99.90
52941;DHT22;62001;53.366;6.636;2022-12-24T03:09:07;6.10;99.90
52941;DHT22;62001;53.366;6.636;2022-12-24T03:11:37;6.10;99.90
52941;DHT22;62001;53.366;6.636;2022-12-24T03:14:06;6.10;99.90
52941;DHT22;62001;53.366;6.636;2022-12-24T03:16:32;6.10;99.90
52941;DHT22;62001;53.366;6.636;2022-12-24T03:18:58;6.10;99.90
52941;DHT22;62001;53.366;6.636;2022-12-24T03:21:30;6.10;99.90
52941;DHT22;62001;53.366;6.636;2022-12-24T03:23:57;6.20;99.90
52941;DHT22;62001;53.366;6.636;2022-12-24T03:26:24;6.10;99.90
52941;DHT22;62001;53.366;6.636;2022-12-24T03:28:51;6.10;99.90
52941;DHT22;62001;53.366;6.636;2022-12-24T03:31:18;6.10;99.90
52941;DHT22;62001;53.366;6.636;2022-12-24T03:33:44;6.10;99.90
52941;DHT22;62001;53.366;6.636;2022-12-24T03:36:11;6.20;99.90
52941;DHT22;62001;53.366;6.636;2022-12-24T03:38:37;6.20;99.90
52941;DHT22;62001;53.366;6.636;2022-12-24T03:41:03;6.20;99.90
52941;DHT22;62001;53.366;6.636;2022-12-24T03:43:28;6.20;99.90
52941;DHT22;62001;53.366;6.636;2022-12-24T03:45:54;6.20;99.90
52941;DHT22;62001;53.366;6.636;2022-12-24T03:48:20;6.20;99.90
52941;DHT22;62001;53.366;6.636;2022-12-24T03:50:46;6.20;99.90
52941;DHT22;62001;53.366;6.636;2022-12-24T03:53:12;6.20;99.90
52941;DHT22;62001;53.366;6.636;2022-12-24T03:55:38;6.30;99.90
52941;DHT22;62001;53.366;6.636;2022-12-24T03:58:05;6.30;99.90
52941;DHT22;62001;53.366;6.636;2022-12-24T04:00:31;6.30;99.90
52941;DHT22;62001;53.366;6.636;2022-12-24T04:02:57;6.30;99.90
52941;DHT22;62001;53.366;6.636;2022-12-24T04:05:22;6.30;99.90
52941;DHT22;62001;53.366;6.636;2022-12-24T04:07:48;6.30;99.90
52941;DHT22;62001;53.366;6.636;2022-12-24T04:10:15;6.30;99.90
52941;DHT22;62001;53.366;6.636;2022-12-24T04:12:41;6.30;99.90
52941;DHT22;62001;53.366;6.636;2022-12-24T04:15:08;6.30;99.90
52941;DHT22;62001;53.366;6.636;2022-12-24T04:17:34;6.30;99.90
52941;DHT22;62001;53.366;6.636;2022-12-24T04:19:59;6.30;99.90
52941;DHT22;62001;53.366;6.636;2022-12-24T04:22:25;6.30;99.90
52941;DHT22;62001;53.366;6.636;2022-12-24T04:24:51;6.30;99.90
52941;DHT22;62001;53.366;6.636;2022-12-24T04:27:17;6.30;99.90
52941;DHT22;62001;53.366;6.636;2022-12-24T04:29:43;6.30;99.90
52941;DHT22;62001;53.366;6.636;2022-12-24T04:32:08;6.30;99.90
52941;DHT22;62001;53.366;6.636;2022-12-24T04:34:35;6.40;99.90
52941;DHT22;62001;53.366;6.636;2022-12-24T04:37:02;6.40;99.90
52941;DHT22;62001;53.366;6.636;2022-12-24T04:39:28;6.40;99.90
52941;DHT22;62001;53.366;6.636;2022-12-24T04:41:54;6.40;99.90
52941;DHT22;62001;53.366;6.636;2022-12-24T04:44:20;6.50;99.90
52941;DHT22;62001;53.366;6.636;2022-12-24T04:46:46;6.50;99.90
52941;DHT22;62001;53.366;6.636;2022-12-24T04:49:12;6.60;99.90
52941;DHT22;62001;53.366;6.636;2022-12-24T04:51:38;6.60;99.90
52941;DHT22;62001;53.366;6.636;2022-12-24T04:54:03;6.60;99.90
52941;DHT22;62001;53.366;6.636;2022-12-24T04:56:30;6.70;99.90
52941;DHT22;62001;53.366;6.636;2022-12-24T04:58:58;6.70;99.90
52941;DHT22;62001;53.366;6.636;2022-12-24T05:01:28;6.80;99.90
52941;DHT22;62001;53.366;6.636;2022-12-24T05:03:54;6.80;99.90
52941;DHT22;62001;53.366;6.636;2022-12-24T05:06:26;6.90;99.90
52941;DHT22;62001;53.366;6.636;2022-12-24T05:08:54;7.00;99.90
52941;DHT22;62001;53.366;6.636;2022-12-24T05:11:20;7.00;99.90
52941;DHT22;62001;53.366;6.636;2022-12-24T05:13:46;7.00;99.90
52941;DHT22;62001;53.366;6.636;2022-12-24T05:16:12;7.10;99.90
52941;DHT22;62001;53.366;6.636;2022-12-24T05:18:39;7.10;99.90
52941;DHT22;62001;53.366;6.636;2022-12-24T05:21:10;7.10;99.90
52941;DHT22;62001;53.366;6.636;2022-12-24T05:23:36;7.20;99.90
52941;DHT22;62001;53.366;6.636;2022-12-24T05:26:50;7.20;99.90
52941;DHT22;62001;53.366;6.636;2022-12-24T05:29:16;7.20;99.90
52941;DHT22;62001;53.366;6.636;2022-12-24T05:31:43;7.20;99.90
52941;DHT22;62001;53.366;6.636;2022-12-24T05:34:10;7.20;99.90
52941;DHT22;62001;53.366;6.636;2022-12-24T05:36:37;7.10;99.90
52941;DHT22;62001;53.366;6.636;2022-12-24T05:39:03;7.10;99.90
52941;DHT22;62001;53.366;6.636;2022-12-24T05:41:29;7.00;99.90
52941;DHT22;62001;53.366;6.636;2022-12-24T05:43:55;7.10;99.90
52941;DHT22;62001;53.366;6.636;2022-12-24T05:46:23;7.00;99.90
52941;DHT22;62001;53.366;6.636;2022-12-24T05:48:50;7.00;99.90
52941;DHT22;62001;53.366;6.636;2022-12-24T05:51:18;7.00;99.90
52941;DHT22;62001;53.366;6.636;2022-12-24T05:53:45;7.10;99.90
52941;DHT22;62001;53.366;6.636;2022-12-24T05:56:14;7.10;99.90
52941;DHT22;62001;53.366;6.636;2022-12-24T05:58:42;7.00;99.90
52941;DHT22;62001;53.366;6.636;2022-12-24T06:01:09;7.00;99.90
52941;DHT22;62001;53.366;6.636;2022-12-24T06:03:35;7.00;99.90
52941;DHT22;62001;53.366;6.636;2022-12-24T06:06:10;7.00;99.90
52941;DHT22;62001;53.366;6.636;2022-12-24T06:08:37;7.00;99.90
52941;DHT22;62001;53.366;6.636;2022-12-24T06:11:06;7.10;99.90
52941;DHT22;62001;53.366;6.636;2022-12-24T06:13:33;7.20;99.90
52941;DHT22;62001;53.366;6.636;2022-12-24T06:16:01;7.30;99.90
52941;DHT22;62001;53.366;6.636;2022-12-24T06:18:31;7.40;99.90
52941;DHT22;62001;53.366;6.636;2022-12-24T06:20:58;7.50;99.90
52941;DHT22;62001;53.366;6.636;2022-12-24T06:23:24;7.50;99.90
52941;DHT22;62001;53.366;6.636;2022-12-24T06:25:50;7.50;99.90
52941;DHT22;62001;53.366;6.636;2022-12-24T06:28:17;7.60;99.90
52941;DHT22;62001;53.366;6.636;2022-12-24T06:30:49;7.60;99.90
52941;DHT22;62001;53.366;6.636;2022-12-24T06:33:17;7.70;99.90
52941;DHT22;62001;53.366;6.636;2022-12-24T06:35:44;7.70;99.90
52941;DHT22;62001;53.366;6.636;2022-12-24T06:38:11;7.70;99.90
52941;DHT22;62001;53.366;6.636;2022-12-24T06:40:37;7.70;99.90
52941;DHT22;62001;53.366;6.636;2022-12-24T06:43:04;7.70;99.90
52941;DHT22;62001;53.366;6.636;2022-12-24T06:45:30;7.80;99.90
52941;DHT22;62001;53.366;6.636;2022-12-24T06:47:57;7.80;99.90
52941;DHT22;62001;53.366;6.636;2022-12-24T06:50:23;7.80;99.90
52941;DHT22;62001;53.366;6.636;2022-12-24T06:52:48;7.80;99.90
52941;DHT22;62001;53.366;6.636;2022-12-24T06:55:14;7.80;99.90
52941;DHT22;62001;53.366;6.636;2022-12-24T06:57:40;7.80;99.90
52941;DHT22;62001;53.366;6.636;2022-12-24T07:00:08;7.80;99.90
52941;DHT22;62001;53.366;6.636;2022-12-24T07:02:34;7.90;99.90
52941;DHT22;62001;53.366;6.636;2022-12-24T07:04:59;7.90;99.90
52941;DHT22;62001;53.366;6.636;2022-12-24T07:07:25;7.80;99.90
52941;DHT22;62001;53.366;6.636;2022-12-24T07:09:51;7.90;99.90
52941;DHT22;62001;53.366;6.636;2022-12-24T07:12:17;7.90;99.90
52941;DHT22;62001;53.366;6.636;2022-12-24T07:14:43;7.90;99.90
52941;DHT22;62001;53.366;6.636;2022-12-24T07:17:09;7.90;99.90
52941;DHT22;62001;53.366;6.636;2022-12-24T07:19:35;7.90;99.90
52941;DHT22;62001;53.366;6.636;2022-12-24T07:22:00;7.90;99.90
52941;DHT22;62001;53.366;6.636;2022-12-24T07:24:26;7.90;99.90
52941;DHT22;62001;53.366;6.636;2022-12-24T07:26:52;7.90;99.90
52941;DHT22;62001;53.366;6.636;2022-12-24T07:29:18;7.90;99.90
52941;DHT22;62001;53.366;6.636;2022-12-24T07:31:44;7.90;99.90
52941;DHT22;62001;53.366;6.636;2022-12-24T07:34:10;7.90;99.90
52941;DHT22;62001;53.366;6.636;2022-12-24T07:36:35;7.90;99.90
52941;DHT22;62001;53.366;6.636;2022-12-24T07:39:01;7.90;99.90
52941;DHT22;62001;53.366;6.636;2022-12-24T07:41:27;7.90;99.90
52941;DHT22;62001;53.366;6.636;2022-12-24T07:43:53;7.90;99.90
52941;DHT22;62001;53.366;6.636;2022-12-24T07:46:19;7.80;99.90
52941;DHT22;62001;53.366;6.636;2022-12-24T07:48:45;7.80;99.90
52941;DHT22;62001;53.366;6.636;2022-12-24T07:51:10;7.70;99.90
52941;DHT22;62001;53.366;6.636;2022-12-24T07:53:36;7.60;99.90
52941;DHT22;62001;53.366;6.636;2022-12-24T07:56:02;7.50;99.90
52941;DHT22;62001;53.366;6.636;2022-12-24T07:58:28;7.40;99.90
52941;DHT22;62001;53.366;6.636;2022-12-24T08:00:58;7.40;99.90
52941;DHT22;62001;53.366;6.636;2022-12-24T08:03:25;7.40;99.90
52941;DHT22;62001;53.366;6.636;2022-12-24T08:05:51;7.30;99.90
52941;DHT22;62001;53.366;6.636;2022-12-24T08:08:20;7.30;99.90
52941;DHT22;62001;53.366;6.636;2022-12-24T08:10:46;7.30;99.90
52941;DHT22;62001;53.366;6.636;2022-12-24T08:13:14;7.30;99.90
52941;DHT22;62001;53.366;6.636;2022-12-24T08:15:41;7.30;99.90
52941;DHT22;62001;53.366;6.636;2022-12-24T08:18:08;7.30;99.90
52941;DHT22;62001;53.366;6.636;2022-12-24T08:20:33;7.30;99.90
52941;DHT22;62001;53.366;6.636;2022-12-24T08:22:59;7.30;99.90
52941;DHT22;62001;53.366;6.636;2022-12-24T08:25:25;7.40;99.90
52941;DHT22;62001;53.366;6.636;2022-12-24T08:27:51;7.40;99.90
52941;DHT22;62001;53.366;6.636;2022-12-24T08:30:17;7.40;99.90
52941;DHT22;62001;53.366;6.636;2022-12-24T08:32:43;7.40;99.90
52941;DHT22;62001;53.366;6.636;2022-12-24T08:35:09;7.40;99.90
52941;DHT22;62001;53.366;6.636;2022-12-24T08:37:35;7.50;99.90
52941;DHT22;62001;53.366;6.636;2022-12-24T08:40:01;7.40;99.90
52941;DHT22;62001;53.366;6.636;2022-12-24T08:42:26;7.50;99.90
52941;DHT22;62001;53.366;6.636;2022-12-24T08:44:52;7.50;99.90
52941;DHT22;62001;53.366;6.636;2022-12-24T08:47:18;7.50;99.90
52941;DHT22;62001;53.366;6.636;2022-12-24T08:49:44;7.50;99.90
52941;DHT22;62001;53.366;6.636;2022-12-24T08:52:10;7.60;99.90
52941;DHT22;62001;53.366;6.636;2022-12-24T08:54:35;7.60;99.90
52941;DHT22;62001;53.366;6.636;2022-12-24T08:57:01;7.60;99.90
52941;DHT22;62001;53.366;6.636;2022-12-24T08:59:27;7.60;99.90
52941;DHT22;62001;53.366;6.636;2022-12-24T09:01:53;7.70;99.90
52941;DHT22;62001;53.366;6.636;2022-12-24T09:04:19;7.70;99.90
52941;DHT22;62001;53.366;6.636;2022-12-24T09:06:45;7.70;99.90
52941;DHT22;62001;53.366;6.636;2022-12-24T09:09:10;7.80;99.90
52941;DHT22;62001;53.366;6.636;2022-12-24T09:11:36;7.80;99.90
52941;DHT22;62001;53.366;6.636;2022-12-24T09:14:02;7.90;99.90
52941;DHT22;62001;53.366;6.636;2022-12-24T09:16:28;7.90;99.90
52941;DHT22;62001;53.366;6.636;2022-12-24T09:18:56;8.00;99.90
52941;DHT22;62001;53.366;6.636;2022-12-24T09:21:22;8.00;99.90
52941;DHT22;62001;53.366;6.636;2022-12-24T09:23:48;8.00;99.90
52941;DHT22;62001;53.366;6.636;2022-12-24T09:26:20;8.10;99.90
52941;DHT22;62001;53.366;6.636;2022-12-24T09:28:47;8.10;99.90
52941;DHT22;62001;53.366;6.636;2022-12-24T09:31:14;8.20;99.90
52941;DHT22;62001;53.366;6.636;2022-12-24T09:33:41;8.20;99.90
52941;DHT22;62001;53.366;6.636;2022-12-24T09:36:07;8.40;99.90
52941;DHT22;62001;53.366;6.636;2022-12-24T09:38:34;8.80;99.90
52941;DHT22;62001;53.366;6.636;2022-12-24T09:41:01;9.40;99.90
52941;DHT22;62001;53.366;6.636;2022-12-24T09:43:30;10.10;99.90
52941;DHT22;62001;53.366;6.636;2022-12-24T09:48:44;10.60;99.90
52941;DHT22;62001;53.366;6.636;2022-12-24T09:51:23;10.80;99.90
52941;DHT22;62001;53.366;6.636;2022-12-24T09:53:58;10.80;99.90
52941;DHT22;62001;53.366;6.636;2022-12-24T09:56:32;10.80;99.90
52941;DHT22;62001;53.366;6.636;2022-12-24T09:59:01;10.80;99.90
52941;DHT22;62001;53.366;6.636;2022-12-24T10:01:32;10.80;99.90
52941;DHT22;62001;53.366;6.636;2022-12-24T10:04:07;10.80;99.90
52941;DHT22;62001;53.366;6.636;2022-12-24T10:09:17;10.80;99.90
52941;DHT22;62001;53.366;6.636;2022-12-24T10:11:55;10.80;99.90
52941;DHT22;62001;53.366;6.636;2022-12-24T10:23:18;10.50;99.90
52941;DHT22;62001;53.366;6.636;2022-12-24T10:28:44;10.20;99.90
52941;DHT22;62001;53.366;6.636;2022-12-24T10:31:11;10.10;99.90
52941;DHT22;62001;53.366;6.636;2022-12-24T10:33:43;10.00;99.90
52941;DHT22;62001;53.366;6.636;2022-12-24T10:36:15;9.90;99.90
52941;DHT22;62001;53.366;6.636;2022-12-24T10:38:42;9.90;99.90
52941;DHT22;62001;53.366;6.636;2022-12-24T10:41:08;9.80;99.90
52941;DHT22;62001;53.366;6.636;2022-12-24T10:43:35;9.80;99.90
52941;DHT22;62001;53.366;6.636;2022-12-24T10:46:06;9.80;99.90
52941;DHT22;62001;53.366;6.636;2022-12-24T10:48:38;9.80;99.90
52941;DHT22;62001;53.366;6.636;2022-12-24T10:51:12;9.80;99.90
52941;DHT22;62001;53.366;6.636;2022-12-24T10:53:47;9.80;99.90
52941;DHT22;62001;53.366;6.636;2022-12-24T10:56:15;9.80;99.90
52941;DHT22;62001;53.366;6.636;2022-12-24T10:58:50;9.80;99.90
52941;DHT22;62001;53.366;6.636;2022-12-24T11:01:16;9.80;99.90
52941;DHT22;62001;53.366;6.636;2022-12-24T11:03:42;9.80;99.90
52941;DHT22;62001;53.366;6.636;2022-12-24T11:06:15;9.70;99.90
52941;DHT22;62001;53.366;6.636;2022-12-24T11:08:46;9.70;99.90
52941;DHT22;62001;53.366;6.636;2022-12-24T11:11:15;9.70;99.90
52941;DHT22;62001;53.366;6.636;2022-12-24T11:13:54;9.70;99.90
52941;DHT22;62001;53.366;6.636;2022-12-24T11:18:49;9.70;99.90
52941;DHT22;62001;53.366;6.636;2022-12-24T11:21:27;9.70;99.90
52941;DHT22;62001;53.366;6.636;2022-12-24T11:23:56;9.80;99.90
52941;DHT22;62001;53.366;6.636;2022-12-24T11:26:26;9.80;99.90
52941;DHT22;62001;53.366;6.636;2022-12-24T11:29:25;9.90;99.90
52941;DHT22;62001;53.366;6.636;2022-12-24T11:31:50;9.80;99.90
52941;DHT22;62001;53.366;6.636;2022-12-24T11:34:30;9.80;99.90
52941;DHT22;62001;53.366;6.636;2022-12-24T11:37:26;9.80;99.90
52941;DHT22;62001;53.366;6.636;2022-12-24T11:39:52;9.80;99.90
52941;DHT22;62001;53.366;6.636;2022-12-24T11:42:23;9.90;99.90
52941;DHT22;62001;53.366;6.636;2022-12-24T11:44:50;9.90;99.90
52941;DHT22;62001;53.366;6.636;2022-12-24T11:47:16;9.90;99.90
52941;DHT22;62001;53.366;6.636;2022-12-24T11:49:42;9.80;99.90
52941;DHT22;62001;53.366;6.636;2022-12-24T11:54:48;9.80;99.90
52941;DHT22;62001;53.366;6.636;2022-12-24T11:57:19;9.80;99.90
52941;DHT22;62001;53.366;6.636;2022-12-24T11:59:47;9.80;99.90
52941;DHT22;62001;53.366;6.636;2022-12-24T12:02:27;9.80;99.90
52941;DHT22;62001;53.366;6.636;2022-12-24T12:04:58;9.80;99.90
52941;DHT22;62001;53.366;6.636;2022-12-24T12:07:27;9.80;99.90
52941;DHT22;62001;53.366;6.636;2022-12-24T12:09:59;9.80;99.90
52941;DHT22;62001;53.366;6.636;2022-12-24T12:13:16;9.70;99.90
52941;DHT22;62001;53.366;6.636;2022-12-24T12:15:23;9.70;99.90
52941;DHT22;62001;53.366;6.636;2022-12-24T12:20:45;9.60;99.90
52941;DHT22;62001;53.366;6.636;2022-12-24T12:29:32;9.50;99.90
52941;DHT22;62001;53.366;6.636;2022-12-24T12:31:44;9.40;99.90
52941;DHT22;62001;53.366;6.636;2022-12-24T12:34:16;9.40;99.90
52941;DHT22;62001;53.366;6.636;2022-12-24T12:39:12;9.50;99.90
52941;DHT22;62001;53.366;6.636;2022-12-24T12:50:07;9.60;99.90
52941;DHT22;62001;53.366;6.636;2022-12-24T12:58:01;9.60;99.90
52941;DHT22;62001;53.366;6.636;2022-12-24T13:00:28;9.50;99.90
52941;DHT22;62001;53.366;6.636;2022-12-24T13:22:37;9.20;99.90
52941;DHT22;62001;53.366;6.636;2022-12-24T13:25:03;9.20;99.90
52941;DHT22;62001;53.366;6.636;2022-12-24T13:27:31;9.20;99.90
52941;DHT22;62001;53.366;6.636;2022-12-24T13:32:53;9.20;99.90
52941;DHT22;62001;53.366;6.636;2022-12-24T13:37:46;9.10;99.90
52941;DHT22;62001;53.366;6.636;2022-12-24T13:40:15;9.10;99.90
52941;DHT22;62001;53.366;6.636;2022-12-24T13:43:05;9.10;99.90
52941;DHT22;62001;53.366;6.636;2022-12-24T13:50:51;9.00;99.90
52941;DHT22;62001;53.366;6.636;2022-12-24T13:53:37;9.00;99.90
52941;DHT22;62001;53.366;6.636;2022-12-24T13:58:34;8.90;99.90
52941;DHT22;62001;53.366;6.636;2022-12-24T14:01:04;8.90;99.90
52941;DHT22;62001;53.366;6.636;2022-12-24T14:03:31;8.90;99.90
52941;DHT22;62001;53.366;6.636;2022-12-24T14:06:07;8.90;99.90
52941;DHT22;62001;53.366;6.636;2022-12-24T14:08:39;8.90;99.90
52941;DHT22;62001;53.366;6.636;2022-12-24T14:11:18;8.90;99.90
52941;DHT22;62001;53.366;6.636;2022-12-24T14:18:47;8.80;99.90
52941;DHT22;62001;53.366;6.636;2022-12-24T14:21:17;8.80;99.90
52941;DHT22;62001;53.366;6.636;2022-12-24T14:23:55;8.80;99.90
52941;DHT22;62001;53.366;6.636;2022-12-24T14:26:24;8.80;99.90
52941;DHT22;62001;53.366;6.636;2022-12-24T14:29:11;8.80;99.90
52941;DHT22;62001;53.366;6.636;2022-12-24T14:31:52;8.70;99.90
52941;DHT22;62001;53.366;6.636;2022-12-24T14:34:18;8.70;99.90
52941;DHT22;62001;53.366;6.636;2022-12-24T14:36:45;8.70;99.90
52941;DHT22;62001;53.366;6.636;2022-12-24T14:39:36;8.70;99.90
52941;DHT22;62001;53.366;6.636;2022-12-24T14:45:29;8.70;99.90
52941;DHT22;62001;53.366;6.636;2022-12-24T14:48:16;8.60;99.90
52941;DHT22;62001;53.366;6.636;2022-12-24T14:56:08;8.70;99.90
52941;DHT22;62001;53.366;6.636;2022-12-24T14:58:38;8.60;99.90
52941;DHT22;62001;53.366;6.636;2022-12-24T15:01:22;8.60;99.90
52941;DHT22;62001;53.366;6.636;2022-12-24T15:06:42;8.60;99.90
52941;DHT22;62001;53.366;6.636;2022-12-24T15:09:35;8.60;99.90
52941;DHT22;62001;53.366;6.636;2022-12-24T15:12:05;8.60;99.90
52941;DHT22;62001;53.366;6.636;2022-12-24T15:14:40;8.60;99.90
52941;DHT22;62001;53.366;6.636;2022-12-24T15:17:08;8.60;99.90
52941;DHT22;62001;53.366;6.636;2022-12-24T15:19:39;8.50;99.90
52941;DHT22;62001;53.366;6.636;2022-12-24T15:22:08;8.50;99.90
52941;DHT22;62001;53.366;6.636;2022-12-24T15:24:43;8.50;99.90
52941;DHT22;62001;53.366;6.636;2022-12-24T15:27:20;8.50;99.90
52941;DHT22;62001;53.366;6.636;2022-12-24T15:29:51;8.50;99.90
52941;DHT22;62001;53.366;6.636;2022-12-24T15:32:19;8.40;99.90
52941;DHT22;62001;53.366;6.636;2022-12-24T15:34:52;8.40;99.90
52941;DHT22;62001;53.366;6.636;2022-12-24T15:37:19;8.30;99.90
52941;DHT22;62001;53.366;6.636;2022-12-24T15:42:34;8.10;99.90
52941;DHT22;62001;53.366;6.636;2022-12-24T15:45:05;8.00;99.90
52941;DHT22;62001;53.366;6.636;2022-12-24T15:47:35;7.90;99.90
52941;DHT22;62001;53.366;6.636;2022-12-24T15:52:42;7.60;99.90
52941;DHT22;62001;53.366;6.636;2022-12-24T15:55:45;7.50;99.90
52941;DHT22;62001;53.366;6.636;2022-12-24T15:58:22;7.40;99.90
52941;DHT22;62001;53.366;6.636;2022-12-24T16:01:27;7.30;99.90
52941;DHT22;62001;53.366;6.636;2022-12-24T16:03:54;7.20;99.90
52941;DHT22;62001;53.366;6.636;2022-12-24T16:06:24;7.10;99.90
52941;DHT22;62001;53.366;6.636;2022-12-24T16:08:50;7.00;99.90
52941;DHT22;62001;53.366;6.636;2022-12-24T16:11:32;7.00;99.90
52941;DHT22;62001;53.366;6.636;2022-12-24T16:17:25;6.80;99.90
52941;DHT22;62001;53.366;6.636;2022-12-24T16:19:55;6.70;99.90
52941;DHT22;62001;53.366;6.636;2022-12-24T16:22:22;6.70;99.90
52941;DHT22;62001;53.366;6.636;2022-12-24T16:24:58;6.60;99.90
52941;DHT22;62001;53.366;6.636;2022-12-24T16:27:25;6.50;99.90
52941;DHT22;62001;53.366;6.636;2022-12-24T16:29:51;6.50;99.90
52941;DHT22;62001;53.366;6.636;2022-12-24T16:32:34;6.40;99.90
52941;DHT22;62001;53.366;6.636;2022-12-24T16:35:02;6.40;99.90
52941;DHT22;62001;53.366;6.636;2022-12-24T16:37:28;6.30;99.90
52941;DHT22;62001;53.366;6.636;2022-12-24T16:39:54;6.30;99.90
52941;DHT22;62001;53.366;6.636;2022-12-24T16:42:20;6.30;99.90
52941;DHT22;62001;53.366;6.636;2022-12-24T16:45:04;6.20;99.90
52941;DHT22;62001;53.366;6.636;2022-12-24T16:47:32;6.20;99.90
52941;DHT22;62001;53.366;6.636;2022-12-24T16:49:58;6.20;99.90
52941;DHT22;62001;53.366;6.636;2022-12-24T16:52:26;6.10;99.90
52941;DHT22;62001;53.366;6.636;2022-12-24T16:54:56;6.10;99.90
52941;DHT22;62001;53.366;6.636;2022-12-24T16:57:23;6.00;99.90
52941;DHT22;62001;53.366;6.636;2022-12-24T16:59:50;6.00;99.90
52941;DHT22;62001;53.366;6.636;2022-12-24T17:02:18;6.00;99.90
52941;DHT22;62001;53.366;6.636;2022-12-24T17:04:45;6.00;99.90
52941;DHT22;62001;53.366;6.636;2022-12-24T17:07:12;5.90;99.90
52941;DHT22;62001;53.366;6.636;2022-12-24T17:09:38;5.90;99.90
52941;DHT22;62001;53.366;6.636;2022-12-24T17:12:04;5.90;99.90
52941;DHT22;62001;53.366;6.636;2022-12-24T17:14:30;5.80;99.90
52941;DHT22;62001;53.366;6.636;2022-12-24T17:16:56;5.80;99.90
52941;DHT22;62001;53.366;6.636;2022-12-24T17:19:22;5.80;99.90
52941;DHT22;62001;53.366;6.636;2022-12-24T17:21:48;5.70;99.90
52941;DHT22;62001;53.366;6.636;2022-12-24T17:24:13;5.60;99.90
52941;DHT22;62001;53.366;6.636;2022-12-24T17:26:40;5.60;99.90
52941;DHT22;62001;53.366;6.636;2022-12-24T17:29:08;5.60;99.90
52941;DHT22;62001;53.366;6.636;2022-12-24T17:31:34;5.50;99.90
52941;DHT22;62001;53.366;6.636;2022-12-24T17:34:02;5.50;99.90
52941;DHT22;62001;53.366;6.636;2022-12-24T17:36:28;5.50;99.90
52941;DHT22;62001;53.366;6.636;2022-12-24T17:38:54;5.40;99.90
52941;DHT22;62001;53.366;6.636;2022-12-24T17:41:20;5.40;99.90
52941;DHT22;62001;53.366;6.636;2022-12-24T17:43:46;5.40;99.90
52941;DHT22;62001;53.366;6.636;2022-12-24T17:46:18;5.30;99.90
52941;DHT22;62001;53.366;6.636;2022-12-24T17:48:47;5.30;99.90
52941;DHT22;62001;53.366;6.636;2022-12-24T17:51:16;5.20;99.90
52941;DHT22;62001;53.366;6.636;2022-12-24T17:53:43;5.20;99.90
52941;DHT22;62001;53.366;6.636;2022-12-24T17:56:10;5.30;99.90
52941;DHT22;62001;53.366;6.636;2022-12-24T17:58:41;5.30;99.90
52941;DHT22;62001;53.366;6.636;2022-12-24T18:01:12;5.30;99.90
52941;DHT22;62001;53.366;6.636;2022-12-24T18:03:38;5.30;99.90
52941;DHT22;62001;53.366;6.636;2022-12-24T18:06:05;5.40;99.90
52941;DHT22;62001;53.366;6.636;2022-12-24T18:08:33;5.40;99.90
52941;DHT22;62001;53.366;6.636;2022-12-24T18:11:08;5.40;99.90